sensor_id;sensor_type;location;lat;lon;timestamp;P1;durP1;ratioP1;P2;durP2;ratioP2
46318;SDS011;32042;50.916;2.926;2022-11-20T00:00:48;50.37;;;26.73;;
46318;SDS011;32042;50.916;2.926;2022-11-20T00:03:14;68.43;;;32.33;;
46318;SDS011;32042;50.916;2.926;2022-11-20T00:05:40;66.40;;;32.70;;
46318;SDS011;32042;50.916;2.926;2022-11-20T00:08:06;74.50;;;34.43;;
46318;SDS011;32042;50.916;2.926;2022-11-20T00:10:31;79.73;;;35.30;;
46318;SDS011;32042;50.916;2.926;2022-11-20T00:13:00;75.50;;;36.10;;
46318;SDS011;32042;50.916;2.926;2022-11-20T00:15:26;81.77;;;36.80;;
46318;SDS011;32042;50.916;2.926;2022-11-20T00:17:52;76.07;;;34.80;;
46318;SDS011;32042;50.916;2.926;2022-11-20T00:20:17;74.80;;;36.00;;
46318;SDS011;32042;50.916;2.926;2022-11-20T00:22:43;87.00;;;38.43;;
46318;SDS011;32042;50.916;2.926;2022-11-20T00:25:09;85.63;;;37.10;;
46318;SDS011;32042;50.916;2.926;2022-11-20T00:27:35;81.30;;;36.83;;
46318;SDS011;32042;50.916;2.926;2022-11-20T00:30:00;81.70;;;36.00;;
46318;SDS011;32042;50.916;2.926;2022-11-20T00:32:26;76.70;;;33.10;;
46318;SDS011;32042;50.916;2.926;2022-11-20T00:34:52;78.17;;;36.27;;
46318;SDS011;32042;50.916;2.926;2022-11-20T00:37:17;77.20;;;33.87;;
46318;SDS011;32042;50.916;2.926;2022-11-20T00:39:43;82.70;;;36.83;;
46318;SDS011;32042;50.916;2.926;2022-11-20T00:42:09;77.07;;;35.53;;
46318;SDS011;32042;50.916;2.926;2022-11-20T00:44:34;69.93;;;33.70;;
46318;SDS011;32042;50.916;2.926;2022-11-20T00:47:00;75.47;;;34.73;;
46318;SDS011;32042;50.916;2.926;2022-11-20T00:49:25;77.23;;;34.20;;
46318;SDS011;32042;50.916;2.926;2022-11-20T00:51:51;79.57;;;34.37;;
46318;SDS011;32042;50.916;2.926;2022-11-20T00:54:17;76.30;;;33.87;;
46318;SDS011;32042;50.916;2.926;2022-11-20T00:56:42;72.20;;;33.77;;
46318;SDS011;32042;50.916;2.926;2022-11-20T00:59:08;71.67;;;34.40;;
46318;SDS011;32042;50.916;2.926;2022-11-20T01:01:35;65.70;;;31.30;;
46318;SDS011;32042;50.916;2.926;2022-11-20T01:04:01;70.23;;;32.50;;
46318;SDS011;32042;50.916;2.926;2022-11-20T01:06:28;65.20;;;32.40;;
46318;SDS011;32042;50.916;2.926;2022-11-20T01:09:00;70.20;;;33.20;;
46318;SDS011;32042;50.916;2.926;2022-11-20T01:11:34;70.93;;;33.50;;
46318;SDS011;32042;50.916;2.926;2022-11-20T01:14:02;70.00;;;33.17;;
46318;SDS011;32042;50.916;2.926;2022-11-20T01:18:57;79.13;;;36.23;;
46318;SDS011;32042;50.916;2.926;2022-11-20T01:21:30;73.30;;;35.13;;
46318;SDS011;32042;50.916;2.926;2022-11-20T01:24:06;70.47;;;33.10;;
46318;SDS011;32042;50.916;2.926;2022-11-20T01:26:34;77.67;;;35.30;;
46318;SDS011;32042;50.916;2.926;2022-11-20T01:29:01;70.50;;;32.77;;
46318;SDS011;32042;50.916;2.926;2022-11-20T01:34:06;71.27;;;33.40;;
46318;SDS011;32042;50.916;2.926;2022-11-20T01:36:35;68.83;;;32.13;;
46318;SDS011;32042;50.916;2.926;2022-11-20T01:39:03;70.07;;;33.17;;
46318;SDS011;32042;50.916;2.926;2022-11-20T01:41:32;64.93;;;31.90;;
46318;SDS011;32042;50.916;2.926;2022-11-20T01:44:19;70.37;;;32.53;;
46318;SDS011;32042;50.916;2.926;2022-11-20T01:47:00;77.37;;;34.17;;
46318;SDS011;32042;50.916;2.926;2022-11-20T01:51:59;71.30;;;32.57;;
46318;SDS011;32042;50.916;2.926;2022-11-20T01:54:31;75.17;;;34.50;;
46318;SDS011;32042;50.916;2.926;2022-11-20T01:57:03;62.57;;;31.33;;
46318;SDS011;32042;50.916;2.926;2022-11-20T01:59:33;72.17;;;33.33;;
46318;SDS011;32042;50.916;2.926;2022-11-20T02:02:02;66.03;;;32.33;;
46318;SDS011;32042;50.916;2.926;2022-11-20T02:04:28;76.17;;;35.50;;
46318;SDS011;32042;50.916;2.926;2022-11-20T02:06:58;73.40;;;33.00;;
46318;SDS011;32042;50.916;2.926;2022-11-20T02:09:25;68.77;;;32.63;;
46318;SDS011;32042;50.916;2.926;2022-11-20T02:11:52;72.20;;;32.77;;
46318;SDS011;32042;50.916;2.926;2022-11-20T02:14:18;73.90;;;32.77;;
46318;SDS011;32042;50.916;2.926;2022-11-20T02:16:46;63.17;;;30.37;;
46318;SDS011;32042;50.916;2.926;2022-11-20T02:19:19;68.17;;;32.17;;
46318;SDS011;32042;50.916;2.926;2022-11-20T02:21:59;70.47;;;32.70;;
46318;SDS011;32042;50.916;2.926;2022-11-20T02:24:27;67.90;;;33.10;;
46318;SDS011;32042;50.916;2.926;2022-11-20T02:29:42;65.37;;;30.93;;
46318;SDS011;32042;50.916;2.926;2022-11-20T02:32:26;67.03;;;30.63;;
46318;SDS011;32042;50.916;2.926;2022-11-20T02:34:55;65.80;;;31.90;;
46318;SDS011;32042;50.916;2.926;2022-11-20T02:37:22;63.93;;;33.20;;
46318;SDS011;32042;50.916;2.926;2022-11-20T02:39:56;69.50;;;33.20;;
46318;SDS011;32042;50.916;2.926;2022-11-20T02:42:22;64.63;;;33.67;;
46318;SDS011;32042;50.916;2.926;2022-11-20T02:44:49;71.87;;;33.17;;
46318;SDS011;32042;50.916;2.926;2022-11-20T02:47:16;66.17;;;31.70;;
46318;SDS011;32042;50.916;2.926;2022-11-20T02:49:42;71.57;;;32.87;;
46318;SDS011;32042;50.916;2.926;2022-11-20T02:52:09;71.03;;;32.83;;
46318;SDS011;32042;50.916;2.926;2022-11-20T02:54:35;68.70;;;34.50;;
46318;SDS011;32042;50.916;2.926;2022-11-20T02:57:01;68.97;;;33.27;;
46318;SDS011;32042;50.916;2.926;2022-11-20T02:59:26;69.07;;;32.67;;
46318;SDS011;32042;50.916;2.926;2022-11-20T03:01:52;64.53;;;32.27;;
46318;SDS011;32042;50.916;2.926;2022-11-20T03:04:18;69.77;;;33.73;;
46318;SDS011;32042;50.916;2.926;2022-11-20T03:06:43;70.17;;;32.80;;
46318;SDS011;32042;50.916;2.926;2022-11-20T03:09:09;71.70;;;34.17;;
46318;SDS011;32042;50.916;2.926;2022-11-20T03:11:35;70.93;;;32.87;;
46318;SDS011;32042;50.916;2.926;2022-11-20T03:14:04;73.00;;;34.07;;
46318;SDS011;32042;50.916;2.926;2022-11-20T03:16:30;64.97;;;32.83;;
46318;SDS011;32042;50.916;2.926;2022-11-20T03:18:56;68.37;;;31.07;;
46318;SDS011;32042;50.916;2.926;2022-11-20T03:21:22;69.50;;;32.63;;
46318;SDS011;32042;50.916;2.926;2022-11-20T03:23:48;73.13;;;31.80;;
46318;SDS011;32042;50.916;2.926;2022-11-20T03:26:18;68.97;;;32.93;;
46318;SDS011;32042;50.916;2.926;2022-11-20T03:28:49;67.73;;;32.67;;
46318;SDS011;32042;50.916;2.926;2022-11-20T03:31:33;69.13;;;32.13;;
46318;SDS011;32042;50.916;2.926;2022-11-20T03:34:00;65.27;;;33.13;;
46318;SDS011;32042;50.916;2.926;2022-11-20T03:36:26;61.93;;;30.87;;
46318;SDS011;32042;50.916;2.926;2022-11-20T03:38:53;61.40;;;30.47;;
46318;SDS011;32042;50.916;2.926;2022-11-20T03:41:21;58.63;;;29.33;;
46318;SDS011;32042;50.916;2.926;2022-11-20T03:43:52;63.23;;;29.90;;
46318;SDS011;32042;50.916;2.926;2022-11-20T03:46:19;60.57;;;28.80;;
46318;SDS011;32042;50.916;2.926;2022-11-20T03:48:45;58.17;;;29.27;;
46318;SDS011;32042;50.916;2.926;2022-11-20T03:51:12;59.73;;;28.20;;
46318;SDS011;32042;50.916;2.926;2022-11-20T03:53:43;58.90;;;27.93;;
46318;SDS011;32042;50.916;2.926;2022-11-20T03:56:11;57.80;;;28.73;;
46318;SDS011;32042;50.916;2.926;2022-11-20T03:58:39;56.33;;;27.47;;
46318;SDS011;32042;50.916;2.926;2022-11-20T04:01:09;53.93;;;28.80;;
46318;SDS011;32042;50.916;2.926;2022-11-20T04:03:37;57.70;;;28.47;;
46318;SDS011;32042;50.916;2.926;2022-11-20T04:06:08;57.33;;;27.67;;
46318;SDS011;32042;50.916;2.926;2022-11-20T04:08:35;54.37;;;27.27;;
46318;SDS011;32042;50.916;2.926;2022-11-20T04:11:11;62.43;;;28.53;;
46318;SDS011;32042;50.916;2.926;2022-11-20T04:13:39;57.03;;;27.43;;
46318;SDS011;32042;50.916;2.926;2022-11-20T04:16:06;62.23;;;28.20;;
46318;SDS011;32042;50.916;2.926;2022-11-20T04:18:33;57.17;;;26.77;;
46318;SDS011;32042;50.916;2.926;2022-11-20T04:20:59;59.67;;;27.63;;
46318;SDS011;32042;50.916;2.926;2022-11-20T04:23:25;58.77;;;28.23;;
46318;SDS011;32042;50.916;2.926;2022-11-20T04:25:51;59.33;;;27.27;;
46318;SDS011;32042;50.916;2.926;2022-11-20T04:28:17;64.43;;;27.53;;
46318;SDS011;32042;50.916;2.926;2022-11-20T04:30:43;65.10;;;29.03;;
46318;SDS011;32042;50.916;2.926;2022-11-20T04:33:09;65.80;;;26.77;;
46318;SDS011;32042;50.916;2.926;2022-11-20T04:35:35;70.77;;;28.60;;
46318;SDS011;32042;50.916;2.926;2022-11-20T04:38:02;67.97;;;29.23;;
46318;SDS011;32042;50.916;2.926;2022-11-20T04:40:27;63.03;;;29.33;;
46318;SDS011;32042;50.916;2.926;2022-11-20T04:42:54;61.73;;;29.63;;
46318;SDS011;32042;50.916;2.926;2022-11-20T04:45:20;65.90;;;28.83;;
46318;SDS011;32042;50.916;2.926;2022-11-20T04:47:46;63.20;;;28.87;;
46318;SDS011;32042;50.916;2.926;2022-11-20T04:50:12;70.73;;;30.50;;
46318;SDS011;32042;50.916;2.926;2022-11-20T04:52:38;71.13;;;31.00;;
46318;SDS011;32042;50.916;2.926;2022-11-20T04:55:03;75.10;;;30.27;;
46318;SDS011;32042;50.916;2.926;2022-11-20T04:57:29;68.63;;;31.13;;
46318;SDS011;32042;50.916;2.926;2022-11-20T04:59:55;71.60;;;30.50;;
46318;SDS011;32042;50.916;2.926;2022-11-20T05:02:21;67.27;;;29.07;;
46318;SDS011;32042;50.916;2.926;2022-11-20T05:04:46;74.17;;;29.50;;
46318;SDS011;32042;50.916;2.926;2022-11-20T05:07:12;72.83;;;29.90;;
46318;SDS011;32042;50.916;2.926;2022-11-20T05:09:38;70.80;;;29.23;;
46318;SDS011;32042;50.916;2.926;2022-11-20T05:12:04;68.57;;;28.73;;
46318;SDS011;32042;50.916;2.926;2022-11-20T05:14:31;72.30;;;27.50;;
46318;SDS011;32042;50.916;2.926;2022-11-20T05:16:57;60.40;;;27.70;;
46318;SDS011;32042;50.916;2.926;2022-11-20T05:19:23;63.90;;;27.37;;
46318;SDS011;32042;50.916;2.926;2022-11-20T05:21:48;65.07;;;27.53;;
46318;SDS011;32042;50.916;2.926;2022-11-20T05:24:14;63.20;;;25.87;;
46318;SDS011;32042;50.916;2.926;2022-11-20T05:26:40;54.50;;;24.17;;
46318;SDS011;32042;50.916;2.926;2022-11-20T05:29:05;46.93;;;23.93;;
46318;SDS011;32042;50.916;2.926;2022-11-20T05:31:31;52.27;;;24.10;;
46318;SDS011;32042;50.916;2.926;2022-11-20T05:33:57;47.60;;;22.50;;
46318;SDS011;32042;50.916;2.926;2022-11-20T05:36:22;46.07;;;21.73;;
46318;SDS011;32042;50.916;2.926;2022-11-20T05:38:48;44.57;;;22.30;;
46318;SDS011;32042;50.916;2.926;2022-11-20T05:41:15;44.27;;;21.07;;
46318;SDS011;32042;50.916;2.926;2022-11-20T05:43:43;43.13;;;21.10;;
46318;SDS011;32042;50.916;2.926;2022-11-20T05:46:10;43.83;;;20.77;;
46318;SDS011;32042;50.916;2.926;2022-11-20T05:48:37;44.23;;;20.83;;
46318;SDS011;32042;50.916;2.926;2022-11-20T05:51:05;50.00;;;21.60;;
46318;SDS011;32042;50.916;2.926;2022-11-20T05:53:33;44.40;;;21.03;;
46318;SDS011;32042;50.916;2.926;2022-11-20T05:56:00;43.33;;;21.47;;
46318;SDS011;32042;50.916;2.926;2022-11-20T05:58:31;40.00;;;19.97;;
46318;SDS011;32042;50.916;2.926;2022-11-20T06:01:19;46.13;;;21.33;;
46318;SDS011;32042;50.916;2.926;2022-11-20T06:03:47;44.07;;;20.07;;
46318;SDS011;32042;50.916;2.926;2022-11-20T06:06:15;39.33;;;19.87;;
46318;SDS011;32042;50.916;2.926;2022-11-20T06:08:41;37.37;;;19.17;;
46318;SDS011;32042;50.916;2.926;2022-11-20T06:11:08;34.40;;;18.47;;
46318;SDS011;32042;50.916;2.926;2022-11-20T06:13:35;36.30;;;19.10;;
46318;SDS011;32042;50.916;2.926;2022-11-20T06:16:01;34.40;;;18.77;;
46318;SDS011;32042;50.916;2.926;2022-11-20T06:18:28;33.43;;;19.60;;
46318;SDS011;32042;50.916;2.926;2022-11-20T06:21:07;38.13;;;20.50;;
46318;SDS011;32042;50.916;2.926;2022-11-20T06:23:35;36.77;;;20.33;;
46318;SDS011;32042;50.916;2.926;2022-11-20T06:26:06;38.87;;;18.83;;
46318;SDS011;32042;50.916;2.926;2022-11-20T06:28:36;32.87;;;18.43;;
46318;SDS011;32042;50.916;2.926;2022-11-20T06:31:04;36.23;;;18.40;;
46318;SDS011;32042;50.916;2.926;2022-11-20T06:33:30;31.63;;;18.23;;
46318;SDS011;32042;50.916;2.926;2022-11-20T06:35:56;35.80;;;17.03;;
46318;SDS011;32042;50.916;2.926;2022-11-20T06:38:26;32.73;;;17.43;;
46318;SDS011;32042;50.916;2.926;2022-11-20T06:40:52;31.70;;;17.30;;
46318;SDS011;32042;50.916;2.926;2022-11-20T06:43:19;28.73;;;16.97;;
46318;SDS011;32042;50.916;2.926;2022-11-20T06:45:46;31.60;;;16.53;;
46318;SDS011;32042;50.916;2.926;2022-11-20T06:48:16;27.67;;;16.00;;
46318;SDS011;32042;50.916;2.926;2022-11-20T06:50:41;25.70;;;15.70;;
46318;SDS011;32042;50.916;2.926;2022-11-20T06:53:07;30.10;;;17.10;;
46318;SDS011;32042;50.916;2.926;2022-11-20T06:55:33;28.60;;;16.87;;
46318;SDS011;32042;50.916;2.926;2022-11-20T06:57:58;28.10;;;16.57;;
46318;SDS011;32042;50.916;2.926;2022-11-20T07:00:24;29.93;;;17.03;;
46318;SDS011;32042;50.916;2.926;2022-11-20T07:02:50;37.20;;;18.33;;
46318;SDS011;32042;50.916;2.926;2022-11-20T07:05:16;31.57;;;16.87;;
46318;SDS011;32042;50.916;2.926;2022-11-20T07:07:42;31.53;;;16.73;;
46318;SDS011;32042;50.916;2.926;2022-11-20T07:10:08;30.77;;;16.63;;
46318;SDS011;32042;50.916;2.926;2022-11-20T07:12:34;33.17;;;16.50;;
46318;SDS011;32042;50.916;2.926;2022-11-20T07:14:59;32.50;;;18.17;;
46318;SDS011;32042;50.916;2.926;2022-11-20T07:17:25;37.43;;;17.63;;
46318;SDS011;32042;50.916;2.926;2022-11-20T07:19:51;29.93;;;17.10;;
46318;SDS011;32042;50.916;2.926;2022-11-20T07:22:16;34.23;;;17.27;;
46318;SDS011;32042;50.916;2.926;2022-11-20T07:24:42;34.70;;;17.77;;
46318;SDS011;32042;50.916;2.926;2022-11-20T07:27:08;34.97;;;17.13;;
46318;SDS011;32042;50.916;2.926;2022-11-20T07:29:33;31.77;;;18.30;;
46318;SDS011;32042;50.916;2.926;2022-11-20T07:31:59;34.07;;;18.13;;
46318;SDS011;32042;50.916;2.926;2022-11-20T07:34:25;29.90;;;16.43;;
46318;SDS011;32042;50.916;2.926;2022-11-20T07:36:51;31.40;;;17.13;;
46318;SDS011;32042;50.916;2.926;2022-11-20T07:39:16;28.00;;;16.20;;
46318;SDS011;32042;50.916;2.926;2022-11-20T07:41:42;30.50;;;16.50;;
46318;SDS011;32042;50.916;2.926;2022-11-20T07:44:07;28.37;;;16.27;;
46318;SDS011;32042;50.916;2.926;2022-11-20T07:46:33;33.10;;;17.43;;
46318;SDS011;32042;50.916;2.926;2022-11-20T07:48:59;26.60;;;15.60;;
46318;SDS011;32042;50.916;2.926;2022-11-20T07:51:24;28.43;;;16.13;;
46318;SDS011;32042;50.916;2.926;2022-11-20T07:53:51;29.00;;;15.97;;
46318;SDS011;32042;50.916;2.926;2022-11-20T07:56:17;30.67;;;16.10;;
46318;SDS011;32042;50.916;2.926;2022-11-20T07:58:43;28.90;;;15.93;;
46318;SDS011;32042;50.916;2.926;2022-11-20T08:01:08;32.67;;;16.83;;
46318;SDS011;32042;50.916;2.926;2022-11-20T08:03:34;29.73;;;17.20;;
46318;SDS011;32042;50.916;2.926;2022-11-20T08:06:02;30.63;;;17.37;;
46318;SDS011;32042;50.916;2.926;2022-11-20T08:08:29;26.87;;;15.53;;
46318;SDS011;32042;50.916;2.926;2022-11-20T08:10:58;30.80;;;16.77;;
46318;SDS011;32042;50.916;2.926;2022-11-20T08:13:42;26.87;;;15.30;;
46318;SDS011;32042;50.916;2.926;2022-11-20T08:16:26;26.73;;;15.57;;
46318;SDS011;32042;50.916;2.926;2022-11-20T08:18:53;32.53;;;18.37;;
46318;SDS011;32042;50.916;2.926;2022-11-20T08:21:18;23.40;;;15.07;;
46318;SDS011;32042;50.916;2.926;2022-11-20T08:23:44;24.80;;;14.67;;
46318;SDS011;32042;50.916;2.926;2022-11-20T08:26:10;23.23;;;13.73;;
46318;SDS011;32042;50.916;2.926;2022-11-20T08:28:35;22.70;;;14.03;;
46318;SDS011;32042;50.916;2.926;2022-11-20T08:31:02;20.83;;;12.93;;
46318;SDS011;32042;50.916;2.926;2022-11-20T08:33:28;22.83;;;12.47;;
46318;SDS011;32042;50.916;2.926;2022-11-20T08:35:58;21.60;;;12.60;;
46318;SDS011;32042;50.916;2.926;2022-11-20T08:38:25;21.07;;;12.30;;
46318;SDS011;32042;50.916;2.926;2022-11-20T08:40:51;21.50;;;11.90;;
46318;SDS011;32042;50.916;2.926;2022-11-20T08:43:35;14.33;;;11.00;;
46318;SDS011;32042;50.916;2.926;2022-11-20T08:46:01;17.17;;;11.23;;
46318;SDS011;32042;50.916;2.926;2022-11-20T08:48:27;18.20;;;10.37;;
46318;SDS011;32042;50.916;2.926;2022-11-20T08:50:52;27.47;;;15.93;;
46318;SDS011;32042;50.916;2.926;2022-11-20T08:53:18;18.53;;;12.00;;
46318;SDS011;32042;50.916;2.926;2022-11-20T08:55:43;21.67;;;11.50;;
46318;SDS011;32042;50.916;2.926;2022-11-20T08:58:09;20.63;;;11.10;;
46318;SDS011;32042;50.916;2.926;2022-11-20T09:00:35;13.93;;;10.93;;
46318;SDS011;32042;50.916;2.926;2022-11-20T09:03:01;18.90;;;10.47;;
46318;SDS011;32042;50.916;2.926;2022-11-20T09:05:27;12.80;;;9.87;;
46318;SDS011;32042;50.916;2.926;2022-11-20T09:07:55;10.97;;;9.50;;
46318;SDS011;32042;50.916;2.926;2022-11-20T09:10:25;15.00;;;8.87;;
46318;SDS011;32042;50.916;2.926;2022-11-20T09:12:52;15.27;;;7.90;;
46318;SDS011;32042;50.916;2.926;2022-11-20T09:15:18;11.77;;;7.33;;
46318;SDS011;32042;50.916;2.926;2022-11-20T09:17:54;14.80;;;9.03;;
46318;SDS011;32042;50.916;2.926;2022-11-20T09:20:21;14.97;;;9.27;;
46318;SDS011;32042;50.916;2.926;2022-11-20T09:22:47;14.23;;;9.73;;
46318;SDS011;32042;50.916;2.926;2022-11-20T09:25:13;10.67;;;7.17;;
46318;SDS011;32042;50.916;2.926;2022-11-20T09:27:39;7.07;;;4.60;;
46318;SDS011;32042;50.916;2.926;2022-11-20T09:30:06;5.17;;;4.23;;
46318;SDS011;32042;50.916;2.926;2022-11-20T09:32:32;7.17;;;4.40;;
46318;SDS011;32042;50.916;2.926;2022-11-20T09:34:58;7.47;;;4.67;;
46318;SDS011;32042;50.916;2.926;2022-11-20T09:37:24;7.37;;;4.10;;
46318;SDS011;32042;50.916;2.926;2022-11-20T09:39:49;6.60;;;3.03;;
46318;SDS011;32042;50.916;2.926;2022-11-20T09:45:35;4.57;;;3.33;;
46318;SDS011;32042;50.916;2.926;2022-11-20T09:48:05;5.80;;;3.10;;
46318;SDS011;32042;50.916;2.926;2022-11-20T09:50:57;6.57;;;3.37;;
46318;SDS011;32042;50.916;2.926;2022-11-20T09:56:33;11.13;;;5.70;;
46318;SDS011;32042;50.916;2.926;2022-11-20T09:59:04;5.77;;;3.80;;
46318;SDS011;32042;50.916;2.926;2022-11-20T10:01:33;6.37;;;3.20;;
46318;SDS011;32042;50.916;2.926;2022-11-20T10:04:03;7.07;;;2.73;;
46318;SDS011;32042;50.916;2.926;2022-11-20T10:19:54;6.73;;;4.97;;
46318;SDS011;32042;50.916;2.926;2022-11-20T10:25:30;7.73;;;2.87;;
46318;SDS011;32042;50.916;2.926;2022-11-20T10:31:02;6.20;;;2.30;;
46318;SDS011;32042;50.916;2.926;2022-11-20T10:33:31;8.07;;;3.13;;
46318;SDS011;32042;50.916;2.926;2022-11-20T10:38:52;3.93;;;2.40;;
46318;SDS011;32042;50.916;2.926;2022-11-20T10:41:24;6.20;;;2.40;;
46318;SDS011;32042;50.916;2.926;2022-11-20T10:44:05;4.53;;;2.73;;
46318;SDS011;32042;50.916;2.926;2022-11-20T10:46:44;6.67;;;2.80;;
46318;SDS011;32042;50.916;2.926;2022-11-20T10:49:17;2.80;;;2.10;;
46318;SDS011;32042;50.916;2.926;2022-11-20T10:51:57;6.37;;;2.47;;
46318;SDS011;32042;50.916;2.926;2022-11-20T10:56:51;3.53;;;2.20;;
46318;SDS011;32042;50.916;2.926;2022-11-20T10:59:41;3.50;;;2.50;;
46318;SDS011;32042;50.916;2.926;2022-11-20T11:02:31;6.73;;;2.57;;
46318;SDS011;32042;50.916;2.926;2022-11-20T11:05:00;6.17;;;3.57;;
46318;SDS011;32042;50.916;2.926;2022-11-20T11:07:38;5.50;;;3.80;;
46318;SDS011;32042;50.916;2.926;2022-11-20T11:10:13;7.83;;;5.30;;
46318;SDS011;32042;50.916;2.926;2022-11-20T11:12:54;9.03;;;4.87;;
46318;SDS011;32042;50.916;2.926;2022-11-20T11:15:39;7.53;;;3.50;;
46318;SDS011;32042;50.916;2.926;2022-11-20T11:18:09;10.50;;;7.17;;
46318;SDS011;32042;50.916;2.926;2022-11-20T11:20:36;9.57;;;3.70;;
46318;SDS011;32042;50.916;2.926;2022-11-20T11:23:02;8.03;;;6.40;;
46318;SDS011;32042;50.916;2.926;2022-11-20T11:25:30;6.07;;;3.70;;
46318;SDS011;32042;50.916;2.926;2022-11-20T11:28:01;6.47;;;4.37;;
46318;SDS011;32042;50.916;2.926;2022-11-20T11:30:28;8.13;;;2.80;;
46318;SDS011;32042;50.916;2.926;2022-11-20T11:33:02;3.97;;;2.60;;
46318;SDS011;32042;50.916;2.926;2022-11-20T11:35:30;4.63;;;3.33;;
46318;SDS011;32042;50.916;2.926;2022-11-20T11:38:03;4.57;;;3.10;;
46318;SDS011;32042;50.916;2.926;2022-11-20T11:40:32;4.57;;;2.70;;
46318;SDS011;32042;50.916;2.926;2022-11-20T11:43:01;3.83;;;2.30;;
46318;SDS011;32042;50.916;2.926;2022-11-20T11:45:30;3.33;;;2.10;;
46318;SDS011;32042;50.916;2.926;2022-11-20T11:47:57;3.00;;;2.40;;
46318;SDS011;32042;50.916;2.926;2022-11-20T11:50:26;4.53;;;2.80;;
46318;SDS011;32042;50.916;2.926;2022-11-20T11:52:59;3.73;;;2.40;;
46318;SDS011;32042;50.916;2.926;2022-11-20T11:58:31;1.77;;;1.50;;
46318;SDS011;32042;50.916;2.926;2022-11-20T12:00:54;2.30;;;1.93;;
46318;SDS011;32042;50.916;2.926;2022-11-20T12:03:37;3.67;;;3.30;;
46318;SDS011;32042;50.916;2.926;2022-11-20T12:06:15;6.00;;;5.37;;
46318;SDS011;32042;50.916;2.926;2022-11-20T12:14:01;2.17;;;1.97;;
46318;SDS011;32042;50.916;2.926;2022-11-20T12:16:40;2.20;;;2.00;;
46318;SDS011;32042;50.916;2.926;2022-11-20T12:19:08;2.00;;;1.70;;
46318;SDS011;32042;50.916;2.926;2022-11-20T12:30:00;3.00;;;2.27;;
46318;SDS011;32042;50.916;2.926;2022-11-20T12:46:46;3.27;;;2.40;;
46318;SDS011;32042;50.916;2.926;2022-11-20T12:55:36;1.93;;;1.70;;
46318;SDS011;32042;50.916;2.926;2022-11-20T13:01:40;2.00;;;1.70;;
46318;SDS011;32042;50.916;2.926;2022-11-20T13:04:07;1.77;;;1.67;;
46318;SDS011;32042;50.916;2.926;2022-11-20T13:06:54;1.60;;;1.50;;
46318;SDS011;32042;50.916;2.926;2022-11-20T13:09:21;3.17;;;2.70;;
46318;SDS011;32042;50.916;2.926;2022-11-20T13:11:57;5.50;;;3.70;;
46318;SDS011;32042;50.916;2.926;2022-11-20T13:14:33;3.73;;;1.67;;
46318;SDS011;32042;50.916;2.926;2022-11-20T13:17:09;5.07;;;3.90;;
46318;SDS011;32042;50.916;2.926;2022-11-20T13:19:38;4.17;;;3.47;;
46318;SDS011;32042;50.916;2.926;2022-11-20T13:22:04;4.87;;;1.53;;
46318;SDS011;32042;50.916;2.926;2022-11-20T13:24:32;4.53;;;2.23;;
46318;SDS011;32042;50.916;2.926;2022-11-20T13:29:44;3.17;;;1.80;;
46318;SDS011;32042;50.916;2.926;2022-11-20T13:32:18;4.73;;;1.50;;
46318;SDS011;32042;50.916;2.926;2022-11-20T13:34:52;4.87;;;1.37;;
46318;SDS011;32042;50.916;2.926;2022-11-20T13:37:25;5.97;;;1.90;;
46318;SDS011;32042;50.916;2.926;2022-11-20T13:42:36;13.33;;;5.93;;
46318;SDS011;32042;50.916;2.926;2022-11-20T13:45:10;10.23;;;3.70;;
46318;SDS011;32042;50.916;2.926;2022-11-20T13:47:47;9.33;;;5.90;;
46318;SDS011;32042;50.916;2.926;2022-11-20T13:50:14;14.80;;;5.97;;
46318;SDS011;32042;50.916;2.926;2022-11-20T13:55:34;9.97;;;2.37;;
46318;SDS011;32042;50.916;2.926;2022-11-20T14:01:24;12.43;;;5.33;;
46318;SDS011;32042;50.916;2.926;2022-11-20T14:03:56;14.23;;;3.83;;
46318;SDS011;32042;50.916;2.926;2022-11-20T14:06:26;11.37;;;4.73;;
46318;SDS011;32042;50.916;2.926;2022-11-20T14:08:56;11.10;;;4.17;;
46318;SDS011;32042;50.916;2.926;2022-11-20T14:11:24;18.27;;;10.13;;
46318;SDS011;32042;50.916;2.926;2022-11-20T14:16:23;11.87;;;6.00;;
46318;SDS011;32042;50.916;2.926;2022-11-20T14:18:50;11.30;;;3.33;;
46318;SDS011;32042;50.916;2.926;2022-11-20T14:21:26;10.60;;;2.97;;
46318;SDS011;32042;50.916;2.926;2022-11-20T14:24:04;12.57;;;4.30;;
46318;SDS011;32042;50.916;2.926;2022-11-20T14:26:30;13.63;;;4.97;;
46318;SDS011;32042;50.916;2.926;2022-11-20T14:28:57;23.40;;;12.13;;
46318;SDS011;32042;50.916;2.926;2022-11-20T14:31:23;59.93;;;24.83;;
46318;SDS011;32042;50.916;2.926;2022-11-20T14:33:53;9.13;;;3.17;;
46318;SDS011;32042;50.916;2.926;2022-11-20T14:36:21;11.13;;;3.50;;
46318;SDS011;32042;50.916;2.926;2022-11-20T14:38:49;7.70;;;2.17;;
46318;SDS011;32042;50.916;2.926;2022-11-20T14:41:20;7.37;;;3.10;;
46318;SDS011;32042;50.916;2.926;2022-11-20T14:43:58;12.33;;;4.27;;
46318;SDS011;32042;50.916;2.926;2022-11-20T14:46:25;20.40;;;6.43;;
46318;SDS011;32042;50.916;2.926;2022-11-20T14:48:56;13.73;;;4.20;;
46318;SDS011;32042;50.916;2.926;2022-11-20T14:51:32;26.57;;;10.77;;
46318;SDS011;32042;50.916;2.926;2022-11-20T14:56:57;16.67;;;6.83;;
46318;SDS011;32042;50.916;2.926;2022-11-20T14:59:27;12.93;;;3.87;;
46318;SDS011;32042;50.916;2.926;2022-11-20T15:01:59;20.73;;;6.07;;
46318;SDS011;32042;50.916;2.926;2022-11-20T15:04:30;13.57;;;4.03;;
46318;SDS011;32042;50.916;2.926;2022-11-20T15:06:56;17.53;;;5.30;;
46318;SDS011;32042;50.916;2.926;2022-11-20T15:09:23;15.03;;;5.50;;
46318;SDS011;32042;50.916;2.926;2022-11-20T15:11:56;17.07;;;4.23;;
46318;SDS011;32042;50.916;2.926;2022-11-20T15:14:24;11.17;;;4.07;;
46318;SDS011;32042;50.916;2.926;2022-11-20T15:16:51;18.73;;;4.50;;
46318;SDS011;32042;50.916;2.926;2022-11-20T15:19:18;12.13;;;3.60;;
46318;SDS011;32042;50.916;2.926;2022-11-20T15:21:47;10.23;;;3.97;;
46318;SDS011;32042;50.916;2.926;2022-11-20T15:24:13;26.03;;;13.83;;
46318;SDS011;32042;50.916;2.926;2022-11-20T15:26:39;23.87;;;11.70;;
46318;SDS011;32042;50.916;2.926;2022-11-20T15:29:07;23.53;;;9.87;;
46318;SDS011;32042;50.916;2.926;2022-11-20T15:31:35;18.77;;;6.80;;
46318;SDS011;32042;50.916;2.926;2022-11-20T15:34:02;16.33;;;5.70;;
46318;SDS011;32042;50.916;2.926;2022-11-20T15:36:31;18.97;;;4.67;;
46318;SDS011;32042;50.916;2.926;2022-11-20T15:38:56;23.10;;;11.83;;
46318;SDS011;32042;50.916;2.926;2022-11-20T15:41:22;14.97;;;5.20;;
46318;SDS011;32042;50.916;2.926;2022-11-20T15:43:48;11.53;;;3.70;;
46318;SDS011;32042;50.916;2.926;2022-11-20T15:46:17;14.37;;;4.10;;
46318;SDS011;32042;50.916;2.926;2022-11-20T15:48:50;17.57;;;4.57;;
46318;SDS011;32042;50.916;2.926;2022-11-20T15:54:00;15.10;;;3.60;;
46318;SDS011;32042;50.916;2.926;2022-11-20T15:56:34;15.07;;;4.77;;
46318;SDS011;32042;50.916;2.926;2022-11-20T15:58:59;19.97;;;6.70;;
46318;SDS011;32042;50.916;2.926;2022-11-20T16:01:25;17.90;;;4.30;;
46318;SDS011;32042;50.916;2.926;2022-11-20T16:03:51;19.67;;;6.10;;
46318;SDS011;32042;50.916;2.926;2022-11-20T16:06:17;17.93;;;5.67;;
46318;SDS011;32042;50.916;2.926;2022-11-20T16:08:42;20.97;;;5.30;;
46318;SDS011;32042;50.916;2.926;2022-11-20T16:11:10;13.57;;;5.07;;
46318;SDS011;32042;50.916;2.926;2022-11-20T16:13:38;15.70;;;4.40;;
46318;SDS011;32042;50.916;2.926;2022-11-20T16:16:23;19.30;;;5.93;;
46318;SDS011;32042;50.916;2.926;2022-11-20T16:18:55;14.93;;;5.90;;